Time;durP1;ratioP1;P1;durP2;ratioP2;P2;SDS_P1;SDS_P2;PMS_P1;PMS_P2;Temp;Humidity;BMP_temperature;BMP_pressure;BME280_temperature;BME280_humidity;BME280_pressure;Samples;Min_cycle;Max_cycle;Signal;HPM_P1;HPM_P2
2020/11/17 00:02:47;;;;;;;46.4;31.3;;;;;;;7.13;80.26563;99336.32;;;;
2020/11/17 00:12:45;;;;;;;33.3;26.9;;;;;;;7.04;80.52734;99343.28;;;;
2020/11/17 00:22:44;;;;;;;47.4;32.3;;;;;;;6.96;81.29492;99351.84;;;;
2020/11/17 00:32:42;;;;;;;41.7;31;;;;;;;7.02;81.13867;99356.13;;;;
2020/11/17 00:42:40;;;;;;;43.7;32.9;;;;;;;6.95;81.78613;99361.75;;;;
2020/11/17 00:52:38;;;;;;;67.6;32.2;;;;;;;6.91;82.03516;99374.06;;;;
2020/11/17 01:02:37;;;;;;;36.4;28.7;;;;;;;6.97;81.51172;99378.38;;;;
2020/11/17 01:12:35;;;;;;;40.5;29.7;;;;;;;7;81.50391;99390.44;;;;
2020/11/17 01:22:34;;;;;;;42.1;29.9;;;;;;;7.05;81.20313;99388.56;;;;
2020/11/17 01:32:32;;;;;;;49.6;31.7;;;;;;;6.97;81.65723;99402.5;;;;
2020/11/17 01:42:30;;;;;;;35.7;28.3;;;;;;;6.98;81.58984;99420.17;;;;
2020/11/17 01:52:28;;;;;;;41.8;28.2;;;;;;;6.91;82.0791;99416.93;;;;
2020/11/17 02:02:27;;;;;;;37;27.9;;;;;;;6.97;81.78906;99412.41;;;;
2020/11/17 02:12:25;;;;;;;32.9;29.5;;;;;;;6.82;82.24316;99415.84;;;;
2020/11/17 02:22:23;;;;;;;33.8;27.6;;;;;;;6.78;82.37793;99400.55;;;;
2020/11/17 02:32:22;;;;;;;41.7;27.7;;;;;;;6.83;81.78516;99420.14;;;;
2020/11/17 02:42:20;;;;;;;42.1;29.3;;;;;;;6.64;82.16211;99418.97;;;;
2020/11/17 02:52:18;;;;;;;41.9;27.2;;;;;;;6.56;81.90137;99430.17;;;;
2020/11/17 03:02:17;;;;;;;34.3;28.3;;;;;;;6.41;82.16309;99433.6;;;;
2020/11/17 03:12:15;;;;;;;32.1;27.5;;;;;;;6.23;83.33301;99434.02;;;;
2020/11/17 03:22:13;;;;;;;45.6;30.7;;;;;;;6.17;84.69238;99439.6;;;;
2020/11/17 03:32:11;;;;;;;35.8;30.6;;;;;;;6.27;84.94727;99445.02;;;;
2020/11/17 03:42:10;;;;;;;39.5;28.6;;;;;;;6.3;84.87402;99447.98;;;;
2020/11/17 03:52:08;;;;;;;29.3;23.2;;;;;;;6.4;84.11328;99452.59;;;;
2020/11/17 04:02:07;;;;;;;71.3;53.6;;;;;;;6.39;83.37598;99451.78;;;;
2020/11/17 04:12:07;;;;;;;30.8;22.9;;;;;;;6.3;82.79004;99457.88;;;;
2020/11/17 04:22:03;;;;;;;32.9;24.4;;;;;;;6.23;83.28906;99471.49;;;;
2020/11/17 04:32:01;;;;;;;54.5;40.5;;;;;;;6.3;84.31738;99493.49;;;;
2020/11/17 04:41:59;;;;;;;54.3;35.1;;;;;;;6.28;84.3252;99492.92;;;;
2020/11/17 04:51:57;;;;;;;33.3;24.7;;;;;;;6.36;83.96094;99495.14;;;;
2020/11/17 05:01:56;;;;;;;39.5;30.6;;;;;;;6.27;83.98926;99502.05;;;;
2020/11/17 05:11:54;;;;;;;38.6;29.7;;;;;;;6.27;83.95508;99498.55;;;;
2020/11/17 05:21:52;;;;;;;34.3;28.7;;;;;;;6.28;84.0332;99508.21;;;;
2020/11/17 05:31:50;;;;;;;34.2;26.7;;;;;;;6.26;84.57617;99507.64;;;;
2020/11/17 05:41:48;;;;;;;34.6;26.6;;;;;;;6.3;83.95996;99522.13;;;;
2020/11/17 05:51:47;;;;;;;49.5;30.3;;;;;;;6.35;83.81445;99528.31;;;;
2020/11/17 06:01:45;;;;;;;30.7;23;;;;;;;6.37;83.50586;99544.14;;;;
2020/11/17 06:11:43;;;;;;;31.8;23.9;;;;;;;6.41;83.55762;99563.98;;;;
2020/11/17 06:21:41;;;;;;;31;25.4;;;;;;;6.33;83.97656;99569.8;;;;
2020/11/17 06:31:39;;;;;;;34.7;26.3;;;;;;;6.11;83.54492;99593.96;;;;
2020/11/17 06:41:38;;;;;;;35.2;25.8;;;;;;;5.77;83.81348;99612.05;;;;
2020/11/17 06:51:36;;;;;;;60.6;30.7;;;;;;;5.48;84.30176;99621.36;;;;
2020/11/17 07:01:34;;;;;;;37.6;26;;;;;;;5.26;84.71582;99634.7;;;;
2020/11/17 07:11:32;;;;;;;36.9;29;;;;;;;5.29;84.56543;99647.56;;;;
2020/11/17 07:21:30;;;;;;;40.7;31.9;;;;;;;5.44;86.07422;99661.14;;;;
2020/11/17 07:31:28;;;;;;;49.7;35.5;;;;;;;5.86;86.04688;99680.16;;;;
2020/11/17 07:41:26;;;;;;;42.9;31.2;;;;;;;6.6;84.43164;99685.7;;;;
2020/11/17 07:51:25;;;;;;;40.4;32.3;;;;;;;7.28;83.05371;99689.45;;;;
2020/11/17 08:01:26;;;;;;;41.2;35.3;;;;;;;7.57;81.20996;99683.44;;;;
2020/11/17 08:11:21;;;;;;;41.9;32.5;;;;;;;7.94;80.08984;99698.64;;;;
2020/11/17 08:21:20;;;;;;;41.8;27.8;;;;;;;8.08;78.42383;99710.51;;;;
2020/11/17 08:31:18;;;;;;;33.9;25.5;;;;;;;8.21;77.25879;99707.32;;;;
2020/11/17 08:41:17;;;;;;;28.9;24.4;;;;;;;8.32;76.25586;99714.38;;;;
2020/11/17 08:51:16;;;;;;;40.3;25.8;;;;;;;8.47;76.76563;99702.83;;;;
2020/11/17 09:01:14;;;;;;;35.1;25.1;;;;;;;8.69;74.80273;99714.16;;;;
2020/11/17 09:11:14;;;;;;;26.4;22;;;;;;;8.92;73.74121;99723.59;;;;
2020/11/17 09:21:11;;;;;;;25.7;21.8;;;;;;;9.35;72.37207;99732.97;;;;
2020/11/17 09:31:10;;;;;;;24.1;21.2;;;;;;;9.5;72.58887;99749.09;;;;
2020/11/17 09:41:08;;;;;;;36.2;21.3;;;;;;;9.71;71.67578;99749.86;;;;
2020/11/17 09:51:07;;;;;;;28.3;22;;;;;;;9.94;71.9502;99751.94;;;;
2020/11/17 10:01:07;;;;;;;26.9;23;;;;;;;10.18;70.35449;99742.17;;;;
2020/11/17 10:11:07;;;;;;;24;19;;;;;;;10.2;69.70215;99740.03;;;;
2020/11/17 10:21:03;;;;;;;31.2;23.2;;;;;;;10.47;69.43945;99745.81;;;;
2020/11/17 10:31:02;;;;;;;33.8;22.5;;;;;;;10.64;68.15332;99741.93;;;;
2020/11/17 10:41:01;;;;;;;31.8;26.3;;;;;;;10.79;68.19922;99736.45;;;;
2020/11/17 10:51:00;;;;;;;30.4;24.4;;;;;;;10.69;66.33887;99717.65;;;;
2020/11/17 11:00:59;;;;;;;33.4;28;;;;;;;10.63;66.72559;99716.05;;;;
2020/11/17 11:11:00;;;;;;;37.7;27.7;;;;;;;10.2;68.00586;99704.2;;;;
2020/11/17 11:20:56;;;;;;;36.6;27;;;;;;;10.39;68.66992;99716.74;;;;
2020/11/17 11:30:55;;;;;;;28.9;20.7;;;;;;;10.67;65.98438;99725.2;;;;
2020/11/17 11:40:54;;;;;;;25.7;19.5;;;;;;;10.82;65.3291;99709.73;;;;
2020/11/17 11:50:53;;;;;;;26.4;21;;;;;;;11.28;65.70508;99707.42;;;;
2020/11/17 12:00:51;;;;;;;25.6;19.6;;;;;;;11.49;64.55566;99691.83;;;;
2020/11/17 12:10:50;;;;;;;30;21.3;;;;;;;11.66;63.86523;99703.02;;;;
2020/11/17 12:20:49;;;;;;;38.5;29.1;;;;;;;11.43;63.85352;99714.58;;;;
2020/11/17 12:30:48;;;;;;;21;18.8;;;;;;;11.27;63.81934;99732.82;;;;
2020/11/17 12:40:47;;;;;;;35.8;20.3;;;;;;;11.21;64.85352;99725.06;;;;
2020/11/17 12:50:46;;;;;;;17;14.7;;;;;;;11.32;63.59863;99715.75;;;;
2020/11/17 13:00:45;;;;;;;20;14.2;;;;;;;11.31;62.73633;99716.87;;;;
2020/11/17 13:10:44;;;;;;;19.5;13.2;;;;;;;11.23;63.1543;99720.17;;;;
2020/11/17 13:20:43;;;;;;;16.2;12.5;;;;;;;11.3;63.87012;99716.05;;;;
2020/11/17 13:30:42;;;;;;;23.4;16.4;;;;;;;11.28;64.68262;99730.94;;;;
2020/11/17 13:40:41;;;;;;;32.4;16.4;;;;;;;11;63.67773;99738.69;;;;
2020/11/17 13:50:40;;;;;;;22.4;14.4;;;;;;;10.95;63.95313;99748.73;;;;
2020/11/17 14:00:39;;;;;;;18.8;14.6;;;;;;;10.77;63.64355;99752.9;;;;
2020/11/17 14:10:37;;;;;;;16.2;12.8;;;;;;;10.73;64.1377;99762.63;;;;
2020/11/17 14:20:36;;;;;;;16.4;12.2;;;;;;;10.64;64.92676;99768.89;;;;
2020/11/17 14:30:35;;;;;;;15.2;11.2;;;;;;;10.46;65.68164;99786.51;;;;
2020/11/17 14:40:34;;;;;;;25.2;18.2;;;;;;;10.18;66.83887;99776.39;;;;
2020/11/17 14:50:33;;;;;;;22.8;13.8;;;;;;;9.67;67.81055;99771.14;;;;
2020/11/17 15:00:31;;;;;;;20.9;16.2;;;;;;;9.07;69.10449;99774.67;;;;
2020/11/17 15:10:30;;;;;;;27;19.2;;;;;;;8.47;70.50684;99781.55;;;;
2020/11/17 15:20:29;;;;;;;30.1;17;;;;;;;7.91;72.37988;99790.43;;;;
2020/11/17 15:30:27;;;;;;;32.4;18.4;;;;;;;7.68;73.21582;99806.91;;;;
2020/11/17 15:40:26;;;;;;;25.1;19.2;;;;;;;7.68;74.70996;99799.67;;;;
2020/11/17 15:50:24;;;;;;;28.9;22;;;;;;;7.77;75.13867;99798.14;;;;
2020/11/17 16:00:22;;;;;;;29.2;24.5;;;;;;;7.9;76.21582;99797.67;;;;
2020/11/17 16:10:21;;;;;;;54.6;44.1;;;;;;;8.03;75.60059;99797.2;;;;
2020/11/17 16:20:19;;;;;;;59.3;39.6;;;;;;;8.02;76.04688;99819.73;;;;
2020/11/17 16:30:18;;;;;;;37.7;25.4;;;;;;;8.15;75.78711;99820.34;;;;
2020/11/17 16:40:18;;;;;;;41.5;26.4;;;;;;;8.21;75.75293;99824.67;;;;
2020/11/17 16:50:15;;;;;;;57.1;41.3;;;;;;;8.25;75.70313;99823.08;;;;
2020/11/17 17:00:14;;;;;;;40.1;30.4;;;;;;;8.19;75.99707;99832.97;;;;
2020/11/17 17:10:14;;;;;;;44.3;31.4;;;;;;;8.23;76.09473;99842.13;;;;
2020/11/17 17:20:11;;;;;;;36.7;31.8;;;;;;;8.24;76.36523;99834.88;;;;
2020/11/17 17:30:09;;;;;;;68.6;56.2;;;;;;;8.21;76.17969;99854.2;;;;
2020/11/17 17:40:07;;;;;;;42.1;32.4;;;;;;;8.15;76.91113;99858.75;;;;
2020/11/17 17:50:06;;;;;;;30.7;27.3;;;;;;;8.14;76.62891;99856.31;;;;
2020/11/17 18:00:04;;;;;;;41.3;35.8;;;;;;;8.35;75.81152;99858.07;;;;
2020/11/17 18:10:03;;;;;;;54.8;39.1;;;;;;;8.48;75.36328;99861.08;;;;
2020/11/17 18:20:01;;;;;;;39.2;33.8;;;;;;;8.54;73.74316;99864.59;;;;
2020/11/17 18:30:00;;;;;;;45.2;33.5;;;;;;;8.54;73.45117;99867.28;;;;
2020/11/17 18:39:59;;;;;;;41.4;27.5;;;;;;;8.54;72.23828;99860.03;;;;
2020/11/17 18:49:57;;;;;;;28.5;25;;;;;;;8.53;71.87695;99874.55;;;;
2020/11/17 18:59:56;;;;;;;28.3;23.2;;;;;;;8.51;72.1875;99883.92;;;;
2020/11/17 19:09:54;;;;;;;34.7;25.9;;;;;;;8.49;72.15039;99883.39;;;;
2020/11/17 19:19:53;;;;;;;31.1;22.5;;;;;;;8.5;72.34277;99871.58;;;;
2020/11/17 19:29:52;;;;;;;28.9;20.3;;;;;;;8.52;72.14355;99890.92;;;;
2020/11/17 19:39:50;;;;;;;26.6;20.6;;;;;;;8.51;72.15332;99891.98;;;;
2020/11/17 19:49:49;;;;;;;21.9;19.5;;;;;;;8.52;72.41504;99891.73;;;;
2020/11/17 19:59:47;;;;;;;27.4;23.3;;;;;;;8.46;72.9541;99886.61;;;;
2020/11/17 20:09:46;;;;;;;28.2;21.5;;;;;;;8.5;72.20801;99890.39;;;;
2020/11/17 20:19:44;;;;;;;32.4;21;;;;;;;8.48;72.77832;99889.83;;;;
2020/11/17 20:29:43;;;;;;;32.2;22.5;;;;;;;8.47;72.33984;99891.7;;;;
2020/11/17 20:39:41;;;;;;;26;19.5;;;;;;;8.46;72.08789;99886.61;;;;
2020/11/17 20:49:40;;;;;;;29.3;21.7;;;;;;;8.37;72.41211;99888.16;;;;
2020/11/17 20:59:38;;;;;;;23.3;17.6;;;;;;;8.26;72.38281;99887.26;;;;
2020/11/17 21:09:37;;;;;;;21.4;18;;;;;;;7.98;72.71777;99890.33;;;;
2020/11/17 21:19:35;;;;;;;17.6;14.6;;;;;;;7.65;73.25488;99887.92;;;;
2020/11/17 21:29:34;;;;;;;21.9;17.3;;;;;;;7.2;75.28613;99891.01;;;;
2020/11/17 21:39:32;;;;;;;20.7;14.6;;;;;;;6.96;75.46973;99899.35;;;;
2020/11/17 21:49:31;;;;;;;18.8;14.4;;;;;;;6.61;76.94043;99904.3;;;;
2020/11/17 21:59:29;;;;;;;22.4;15;;;;;;;6.42;78.25781;99908.34;;;;
2020/11/17 22:09:27;;;;;;;20.8;15.9;;;;;;;6.5;79.14355;99923.97;;;;
2020/11/17 22:19:26;;;;;;;19.1;15.5;;;;;;;6.65;78.73535;99916.13;;;;
2020/11/17 22:29:24;;;;;;;28.3;16.9;;;;;;;6.64;78.36523;99917.19;;;;
2020/11/17 22:39:22;;;;;;;24.5;15.6;;;;;;;6.79;78.35938;99914.7;;;;
2020/11/17 22:49:21;;;;;;;14.6;12.4;;;;;;;6.71;78.14355;99925.84;;;;
2020/11/17 22:59:19;;;;;;;15.2;10.9;;;;;;;6.68;78.03809;99937.06;;;;
2020/11/17 23:09:17;;;;;;;18.9;12.7;;;;;;;6.72;77.71973;99940.05;;;;
2020/11/17 23:19:16;;;;;;;20.5;14.3;;;;;;;6.58;78.35547;99937.75;;;;
2020/11/17 23:29:15;;;;;;;37.5;16.2;;;;;;;6.58;78.62207;99928.91;;;;
2020/11/17 23:39:15;;;;;;;20.6;13.8;;;;;;;6.58;78.24414;99932.39;;;;
2020/11/17 23:49:11;;;;;;;19;15;;;;;;;6.56;77.67969;99926.45;;;;
2020/11/17 23:59:09;;;;;;;16.1;12.4;;;;;;;6.74;75.93457;99927.21;;;;
